createdAt,value
2019-02-25T00:01:17.610Z,17.62
2019-02-25T00:02:52.073Z,17.20
2019-02-25T00:04:27.041Z,18.23
2019-02-25T00:06:01.912Z,15.48
2019-02-25T00:07:36.575Z,15.30
2019-02-25T00:09:11.268Z,16.87
2019-02-25T00:10:45.670Z,20.20
2019-02-25T00:12:20.475Z,18.35
2019-02-25T00:13:54.869Z,15.88
2019-02-25T00:15:30.094Z,18.98
2019-02-25T00:17:04.842Z,17.10
2019-02-25T00:18:39.782Z,16.65
2019-02-25T00:20:14.634Z,19.07
2019-02-25T00:21:49.014Z,16.37
2019-02-25T00:23:23.393Z,16.73
2019-02-25T00:24:58.028Z,19.20
2019-02-25T00:26:32.808Z,15.32
2019-02-25T00:28:07.201Z,17.62
2019-02-25T00:29:41.593Z,14.87
2019-02-25T00:31:15.973Z,14.87
2019-02-25T00:32:50.616Z,13.55
2019-02-25T00:34:24.985Z,16.12
2019-02-25T00:35:59.383Z,16.55
2019-02-25T00:37:34.371Z,15.38
2019-02-25T00:39:09.717Z,14.90
2019-02-25T00:40:44.439Z,13.83
2019-02-25T00:42:18.959Z,12.47
2019-02-25T00:43:53.334Z,15.83
2019-02-25T00:45:27.727Z,15.20
2019-02-25T00:47:02.371Z,13.62
2019-02-25T00:48:36.819Z,13.53
2019-02-25T00:50:12.366Z,14.10
2019-02-25T00:51:46.755Z,14.78
2019-02-25T00:53:21.144Z,15.95
2019-02-25T00:54:56.197Z,16.60
2019-02-25T00:56:30.598Z,15.28
2019-02-25T00:58:05.372Z,13.90
2019-02-25T00:59:40.457Z,12.33
2019-02-25T01:01:15.002Z,12.58
2019-02-25T01:02:49.477Z,13.98
2019-02-25T01:04:23.926Z,15.32
2019-02-25T01:05:59.140Z,14.55
2019-02-25T01:07:33.611Z,12.88
2019-02-25T01:09:08.381Z,14.10
2019-02-25T01:10:43.109Z,13.70
2019-02-25T01:12:17.697Z,14.23
2019-02-25T01:13:52.432Z,13.98
2019-02-25T01:15:26.814Z,11.63
2019-02-25T01:17:01.273Z,14.98
2019-02-25T01:18:36.033Z,13.85
2019-02-25T01:20:10.902Z,12.60
2019-02-25T01:21:45.292Z,12.55
2019-02-25T01:23:19.941Z,13.30
2019-02-25T01:24:54.705Z,11.78
2019-02-25T01:26:29.074Z,13.98
2019-02-25T01:28:03.525Z,12.10
2019-02-25T01:29:38.192Z,15.32
2019-02-25T01:31:13.337Z,12.93
2019-02-25T01:32:48.146Z,11.63
2019-02-25T01:34:22.537Z,12.28
2019-02-25T01:35:56.913Z,13.25
2019-02-25T01:37:31.402Z,12.73
2019-02-25T01:39:07.223Z,14.40
2019-02-25T01:40:41.866Z,14.73
2019-02-25T01:42:16.611Z,13.08
2019-02-25T01:43:51.099Z,13.15
2019-02-25T01:45:25.742Z,11.15
2019-02-25T01:47:00.442Z,13.28
2019-02-25T01:48:34.898Z,10.65
2019-02-25T01:50:09.983Z,14.75
2019-02-25T01:51:44.703Z,10.75
2019-02-25T01:53:19.165Z,12.05
2019-02-25T01:54:53.845Z,13.88
2019-02-25T01:56:28.226Z,12.10
2019-02-25T01:58:02.865Z,14.83
2019-02-25T01:59:37.268Z,11.00
2019-02-25T02:01:12.003Z,10.35
2019-02-25T02:02:46.741Z,10.78
2019-02-25T02:04:21.711Z,10.40
2019-02-25T02:05:56.171Z,10.90
2019-02-25T02:07:30.897Z,10.23
2019-02-25T02:09:07.670Z,11.55
2019-02-25T02:10:42.380Z,11.90
2019-02-25T02:12:17.099Z,11.88
2019-02-25T02:13:51.486Z,10.85
2019-02-25T02:15:25.948Z,11.80
2019-02-25T02:17:00.756Z,9.70
2019-02-25T02:18:35.311Z,12.55
2019-02-25T02:20:11.236Z,10.15
2019-02-25T02:21:46.243Z,10.85
2019-02-25T02:23:20.651Z,12.10
2019-02-25T02:24:55.377Z,9.05
2019-02-25T02:26:30.102Z,10.58
2019-02-25T02:28:04.635Z,12.60
2019-02-25T02:29:39.607Z,11.48
2019-02-25T02:31:14.064Z,11.60
2019-02-25T02:32:49.007Z,9.73
2019-02-25T02:34:24.115Z,11.97
2019-02-25T02:35:58.831Z,10.85
2019-02-25T02:37:33.557Z,11.45
2019-02-25T02:39:08.533Z,10.35
2019-02-25T02:40:42.985Z,11.80
2019-02-25T02:42:21.646Z,12.70
2019-02-25T02:43:56.046Z,10.03
2019-02-25T02:45:40.126Z,12.13
2019-02-25T02:47:41.393Z,12.75
2019-02-25T02:49:15.858Z,10.43
2019-02-25T02:50:50.269Z,13.90
2019-02-25T02:52:24.950Z,10.03
2019-02-25T02:53:59.426Z,12.35
2019-02-25T02:55:33.923Z,10.18
2019-02-25T02:57:08.282Z,12.43
2019-02-25T02:58:42.658Z,9.88
2019-02-25T03:00:18.512Z,10.32
2019-02-25T03:01:52.925Z,11.53
2019-02-25T03:03:27.307Z,10.95
2019-02-25T03:05:03.361Z,10.32
2019-02-25T03:06:38.000Z,9.30
2019-02-25T03:08:12.417Z,11.08
2019-02-25T03:09:46.917Z,10.58
2019-02-25T03:11:21.364Z,11.35
2019-02-25T03:12:55.852Z,11.28
2019-02-25T03:14:30.688Z,10.40
2019-02-25T03:16:05.062Z,11.05
2019-02-25T03:17:39.493Z,13.58
2019-02-25T03:19:14.293Z,11.28
2019-02-25T03:20:48.960Z,12.78
2019-02-25T03:22:23.926Z,11.50
2019-02-25T03:23:58.300Z,12.55
2019-02-25T03:25:32.955Z,11.20
2019-02-25T03:27:07.624Z,10.55
2019-02-25T03:28:42.227Z,9.88
2019-02-25T03:30:18.313Z,10.75
2019-02-25T03:31:53.066Z,11.90
2019-02-25T03:33:27.750Z,12.03
2019-02-25T03:35:02.514Z,12.10
2019-02-25T03:36:36.888Z,13.60
2019-02-25T03:38:11.670Z,12.20
2019-02-25T03:39:46.925Z,12.60
2019-02-25T03:41:21.598Z,12.28
2019-02-25T03:42:56.249Z,13.13
2019-02-25T03:44:30.993Z,14.20
2019-02-25T03:46:05.365Z,10.53
2019-02-25T03:47:39.762Z,10.00
2019-02-25T03:49:14.213Z,12.93
2019-02-25T03:50:48.602Z,11.22
2019-02-25T03:52:23.305Z,10.38
2019-02-25T03:53:57.713Z,12.93
2019-02-25T03:55:32.083Z,13.93
2019-02-25T03:57:06.558Z,9.23
2019-02-25T03:58:41.250Z,13.00
2019-02-25T04:00:19.338Z,12.60
2019-02-25T04:01:53.794Z,9.38
2019-02-25T04:03:28.926Z,9.13
2019-02-25T04:05:04.255Z,7.85
2019-02-25T04:06:38.703Z,9.75
2019-02-25T04:08:13.070Z,10.15
2019-02-25T04:09:47.857Z,9.43
2019-02-25T04:11:22.304Z,10.25
2019-02-25T04:12:56.677Z,12.25
2019-02-25T04:14:31.664Z,14.10
2019-02-25T04:16:06.067Z,12.70
2019-02-25T04:17:40.807Z,12.93
2019-02-25T04:19:15.181Z,13.50
2019-02-25T04:20:49.567Z,14.53
2019-02-25T04:22:23.982Z,12.58
2019-02-25T04:23:58.347Z,11.95
2019-02-25T04:25:32.728Z,11.10
2019-02-25T04:27:07.105Z,11.97
2019-02-25T04:28:41.487Z,11.85
2019-02-25T04:30:16.190Z,14.78
2019-02-25T04:31:50.554Z,9.95
2019-02-25T04:33:25.224Z,12.63
2019-02-25T04:35:01.600Z,12.03
2019-02-25T04:36:36.017Z,10.93
2019-02-25T04:38:11.029Z,9.95
2019-02-25T04:39:45.760Z,10.45
2019-02-25T04:41:20.218Z,11.38
2019-02-25T04:42:54.599Z,12.75
2019-02-25T04:44:29.400Z,8.45
2019-02-25T04:46:03.804Z,10.40
2019-02-25T04:47:38.171Z,7.72
2019-02-25T04:49:12.950Z,9.23
2019-02-25T04:50:47.364Z,12.82
2019-02-25T04:52:22.086Z,10.13
2019-02-25T04:53:56.789Z,8.68
2019-02-25T04:55:31.426Z,10.80
2019-02-25T04:57:06.261Z,10.25
2019-02-25T04:58:40.713Z,10.90
2019-02-25T05:00:16.469Z,10.15
2019-02-25T05:01:51.233Z,9.20
2019-02-25T05:03:25.620Z,11.53
2019-02-25T05:05:00.005Z,11.03
2019-02-25T05:06:34.769Z,13.78
2019-02-25T05:08:09.498Z,10.45
2019-02-25T05:09:44.586Z,15.30
2019-02-25T05:11:18.957Z,11.93
2019-02-25T05:13:01.031Z,10.32
2019-02-25T05:14:35.398Z,11.63
2019-02-25T05:16:10.165Z,10.50
2019-02-25T05:17:44.547Z,10.43
2019-02-25T05:19:18.989Z,14.53
2019-02-25T05:20:53.353Z,13.95
2019-02-25T05:22:27.744Z,12.70
2019-02-25T05:24:02.558Z,13.38
2019-02-25T05:25:37.270Z,12.55
2019-02-25T05:27:12.013Z,13.70
2019-02-25T05:28:46.966Z,10.88
2019-02-25T05:30:21.349Z,13.83
2019-02-25T05:31:56.026Z,11.38
2019-02-25T05:33:30.701Z,11.50
2019-02-25T05:35:05.593Z,13.00
2019-02-25T05:36:40.540Z,11.85
2019-02-25T05:38:15.238Z,12.82
2019-02-25T05:39:49.608Z,13.58
2019-02-25T05:41:23.975Z,14.18
2019-02-25T05:42:58.341Z,12.50
2019-02-25T05:44:32.726Z,13.00
2019-02-25T05:46:07.095Z,11.48
2019-02-25T05:47:41.560Z,11.53
2019-02-25T05:49:15.933Z,10.50
2019-02-25T05:50:50.334Z,12.45
2019-02-25T05:52:29.142Z,12.20
2019-02-25T05:54:04.010Z,11.38
2019-02-25T05:55:38.709Z,10.78
2019-02-25T05:57:13.165Z,9.20
2019-02-25T05:58:48.135Z,9.05
2019-02-25T06:00:25.041Z,10.50
2019-02-25T06:01:59.413Z,12.65
2019-02-25T06:03:34.146Z,10.98
2019-02-25T06:05:08.774Z,9.15
2019-02-25T06:06:43.140Z,9.60
2019-02-25T06:08:17.897Z,9.60
2019-02-25T06:09:52.273Z,11.88
2019-02-25T06:11:26.634Z,10.65
2019-02-25T06:13:01.343Z,14.58
2019-02-25T06:14:35.913Z,14.55
2019-02-25T06:16:10.578Z,16.12
2019-02-25T06:17:45.298Z,14.90
2019-02-25T06:19:20.010Z,16.05
2019-02-25T06:20:54.417Z,15.95
2019-02-25T06:22:29.145Z,17.10
2019-02-25T06:24:03.518Z,13.03
2019-02-25T06:25:37.887Z,16.95
2019-02-25T06:27:12.293Z,15.10
2019-02-25T06:28:46.676Z,16.40
2019-02-25T06:30:21.319Z,16.82
2019-02-25T06:31:55.689Z,14.23
2019-02-25T06:33:30.114Z,16.90
2019-02-25T06:35:05.575Z,15.68
2019-02-25T06:36:40.312Z,14.38
2019-02-25T06:38:14.678Z,13.00
2019-02-25T06:39:49.075Z,15.88
2019-02-25T06:41:23.846Z,12.53
2019-02-25T06:42:58.580Z,11.05
2019-02-25T06:44:33.302Z,11.50
2019-02-25T06:46:07.686Z,14.60
2019-02-25T06:47:42.052Z,11.45
2019-02-25T06:49:16.462Z,12.90
2019-02-25T06:50:50.846Z,9.63
2019-02-25T06:52:25.310Z,14.15
2019-02-25T06:53:59.982Z,9.63
2019-02-25T06:55:34.410Z,12.10
2019-02-25T06:57:08.818Z,9.08
2019-02-25T06:58:43.541Z,11.38
2019-02-25T07:00:18.775Z,13.88
2019-02-25T07:01:53.370Z,12.30
2019-02-25T07:03:28.107Z,11.80
2019-02-25T07:05:20.710Z,14.98
2019-02-25T07:07:00.097Z,13.30
2019-02-25T07:08:42.161Z,13.68
2019-02-25T07:10:41.485Z,10.78
2019-02-25T07:12:24.010Z,14.15
2019-02-25T07:14:16.149Z,12.20
2019-02-25T07:16:08.528Z,12.25
2019-02-25T07:17:50.855Z,14.35
2019-02-25T07:19:54.025Z,13.20
2019-02-25T07:21:53.217Z,12.88
2019-02-25T07:23:43.748Z,10.82
2019-02-25T07:25:36.454Z,13.68
2019-02-25T07:27:25.221Z,25.88
2019-02-25T07:29:12.410Z,13.53
2019-02-25T07:31:24.310Z,13.83
2019-02-25T07:33:17.052Z,10.93
2019-02-25T07:35:12.369Z,13.98
2019-02-25T07:37:02.622Z,14.68
2019-02-25T07:39:14.516Z,12.03
2019-02-25T07:40:57.050Z,18.52
2019-02-25T07:42:49.055Z,12.23
2019-02-25T07:44:29.194Z,16.97
2019-02-25T07:46:25.941Z,12.45
2019-02-25T07:48:06.098Z,11.33
2019-02-25T07:49:58.848Z,16.48
2019-02-25T07:51:52.594Z,15.55
2019-02-25T07:53:46.067Z,15.63
2019-02-25T07:55:45.514Z,14.95
2019-02-25T07:57:41.911Z,15.40
2019-02-25T07:59:23.178Z,15.30
2019-02-25T08:01:17.642Z,16.35
2019-02-25T08:02:58.328Z,13.32
2019-02-25T08:05:07.286Z,16.93
2019-02-25T08:07:00.606Z,15.13
2019-02-25T08:08:54.898Z,16.87
2019-02-25T08:10:51.528Z,12.68
2019-02-25T08:12:41.747Z,14.90
2019-02-25T08:14:53.875Z,13.10
2019-02-25T08:16:45.961Z,10.82
2019-02-25T08:18:42.597Z,13.13
2019-02-25T08:20:26.621Z,13.08
2019-02-25T08:22:32.997Z,14.60
2019-02-25T08:24:14.254Z,12.60
2019-02-25T08:26:05.594Z,13.55
2019-02-25T08:27:50.106Z,14.05
2019-02-25T08:29:39.376Z,12.80
2019-02-25T08:31:30.607Z,11.75
2019-02-25T08:33:27.506Z,14.28
2019-02-25T08:35:21.230Z,13.72
2019-02-25T08:37:54.369Z,13.08
2019-02-25T08:40:00.657Z,10.15
2019-02-25T08:41:44.065Z,13.15
2019-02-25T08:43:25.395Z,11.88
2019-02-25T08:45:22.861Z,14.53
2019-02-25T08:47:08.643Z,12.63
2019-02-25T08:48:48.376Z,11.33
2019-02-25T08:50:22.767Z,11.63
2019-02-25T08:51:57.501Z,11.93
2019-02-25T08:53:32.038Z,11.83
2019-02-25T08:55:08.283Z,12.40
2019-02-25T08:56:42.733Z,11.60
2019-02-25T08:58:17.186Z,11.27
2019-02-25T08:59:52.279Z,11.07
2019-02-25T09:01:27.006Z,9.90
2019-02-25T09:03:01.476Z,10.87
2019-02-25T09:04:35.892Z,12.30
2019-02-25T09:06:10.662Z,11.87
2019-02-25T09:07:45.189Z,10.70
2019-02-25T09:09:19.981Z,10.10
2019-02-25T09:10:55.308Z,13.60
2019-02-25T09:12:30.088Z,11.50
2019-02-25T09:14:04.562Z,11.13
2019-02-25T09:15:38.953Z,8.23
2019-02-25T09:17:13.504Z,11.87
2019-02-25T09:18:48.308Z,12.50
2019-02-25T09:20:23.402Z,8.97
2019-02-25T09:21:58.206Z,8.97
2019-02-25T09:23:33.018Z,10.13
2019-02-25T09:25:08.353Z,12.90
2019-02-25T09:26:43.150Z,9.73
2019-02-25T09:28:18.288Z,9.77
2019-02-25T09:29:53.126Z,10.87
2019-02-25T09:31:27.949Z,8.40
2019-02-25T09:33:03.008Z,9.77
2019-02-25T09:34:37.790Z,9.53
2019-02-25T09:36:12.480Z,9.57
2019-02-25T09:37:47.442Z,7.47
2019-02-25T09:39:22.285Z,9.60
2019-02-25T09:40:57.337Z,8.43
2019-02-25T09:42:32.330Z,9.17
2019-02-25T09:44:07.683Z,8.37
2019-02-25T09:45:42.469Z,9.67
2019-02-25T09:47:17.758Z,7.07
2019-02-25T09:48:52.549Z,9.57
2019-02-25T09:50:27.650Z,8.80
2019-02-25T09:52:02.473Z,13.13
2019-02-25T09:53:37.296Z,10.47
2019-02-25T09:55:12.563Z,10.10
2019-02-25T09:56:47.635Z,8.43
2019-02-25T09:58:23.029Z,15.90
2019-02-25T09:59:58.180Z,9.83
2019-02-25T10:01:33.037Z,9.50
2019-02-25T10:03:08.499Z,9.30
2019-02-25T10:04:43.282Z,12.10
2019-02-25T10:06:18.088Z,10.07
2019-02-25T10:07:52.960Z,8.93
2019-02-25T10:09:30.042Z,11.30
2019-02-25T10:11:04.374Z,9.90
2019-02-25T10:12:39.171Z,6.53
2019-02-25T10:14:14.003Z,9.63
2019-02-25T10:15:48.843Z,8.90
2019-02-25T10:17:24.195Z,10.67
2019-02-25T10:18:59.604Z,9.73
2019-02-25T10:20:34.474Z,10.43
2019-02-25T10:22:09.537Z,10.33
2019-02-25T10:23:44.568Z,11.20
2019-02-25T10:25:19.362Z,9.53
2019-02-25T10:26:54.169Z,11.03
2019-02-25T10:28:28.966Z,7.83
2019-02-25T10:30:04.401Z,9.67
2019-02-25T10:31:40.073Z,9.83
2019-02-25T10:33:16.337Z,10.03
2019-02-25T10:34:51.131Z,12.53
2019-02-25T10:36:26.028Z,11.43
2019-02-25T10:38:03.570Z,10.90
2019-02-25T10:39:38.881Z,12.50
2019-02-25T10:41:14.290Z,12.03
2019-02-25T10:42:49.163Z,11.40
2019-02-25T10:44:24.485Z,12.73
2019-02-25T10:45:59.487Z,11.70
2019-02-25T10:47:34.424Z,12.27
2019-02-25T10:49:11.571Z,12.23
2019-02-25T10:50:46.012Z,12.03
2019-02-25T10:52:20.821Z,9.67
2019-02-25T10:53:55.660Z,9.50
2019-02-25T10:55:35.113Z,9.57
2019-02-25T10:57:19.404Z,8.17
2019-02-25T10:58:55.132Z,10.03
2019-02-25T11:00:30.172Z,9.47
2019-02-25T11:02:05.421Z,10.50
2019-02-25T11:03:40.598Z,10.60
2019-02-25T11:05:15.536Z,12.57
2019-02-25T11:06:50.430Z,10.33
2019-02-25T11:08:25.765Z,9.33
2019-02-25T11:10:23.015Z,11.13
2019-02-25T11:11:59.970Z,13.23
2019-02-25T11:13:36.711Z,8.80
2019-02-25T11:15:13.733Z,11.90
2019-02-25T11:16:50.576Z,9.80
2019-02-25T11:18:26.688Z,10.97
2019-02-25T11:20:03.747Z,11.93
2019-02-25T11:21:39.951Z,8.67
2019-02-25T11:23:17.619Z,9.87
2019-02-25T11:24:53.433Z,9.20
2019-02-25T11:26:30.541Z,9.43
2019-02-25T11:28:07.025Z,10.57
2019-02-25T11:29:42.522Z,9.73
2019-02-25T11:31:22.301Z,9.97
2019-02-25T11:32:56.268Z,9.17
2019-02-25T11:34:33.677Z,9.97
2019-02-25T11:36:08.404Z,10.50
2019-02-25T11:37:43.592Z,8.53
2019-02-25T11:39:21.867Z,9.03
2019-02-25T11:40:57.154Z,9.93
2019-02-25T11:42:32.175Z,8.27
2019-02-25T11:44:07.039Z,9.23
2019-02-25T11:45:41.919Z,10.13
2019-02-25T11:47:17.101Z,10.30
2019-02-25T11:48:52.376Z,9.47
2019-02-25T11:50:27.417Z,7.60
2019-02-25T11:52:02.219Z,8.47
2019-02-25T11:53:37.305Z,9.00
2019-02-25T11:55:12.563Z,9.67
2019-02-25T11:56:47.699Z,7.97
2019-02-25T11:58:23.796Z,7.90
2019-02-25T11:59:58.896Z,7.03
2019-02-25T12:01:33.947Z,8.13
2019-02-25T12:03:10.509Z,8.17
2019-02-25T12:04:45.561Z,7.40
2019-02-25T12:06:20.601Z,8.80
2019-02-25T12:07:55.473Z,9.17
2019-02-25T12:09:31.927Z,10.10
2019-02-25T12:11:09.809Z,9.07
2019-02-25T12:12:44.777Z,7.63
2019-02-25T12:14:19.562Z,7.83
2019-02-25T12:15:54.359Z,10.63
2019-02-25T12:17:30.520Z,6.73
2019-02-25T12:19:05.615Z,4.90
2019-02-25T12:20:40.810Z,7.33
2019-02-25T12:22:15.834Z,6.93
2019-02-25T12:23:51.154Z,4.40
2019-02-25T12:25:26.165Z,4.53
2019-02-25T12:27:00.953Z,5.33
2019-02-25T12:28:36.002Z,4.40
2019-02-25T12:30:15.279Z,5.40
2019-02-25T12:31:50.130Z,4.30
2019-02-25T12:33:24.939Z,5.30
2019-02-25T12:34:59.739Z,4.33
2019-02-25T12:36:35.081Z,4.57
2019-02-25T12:38:09.871Z,5.50
2019-02-25T12:39:44.808Z,4.53
2019-02-25T12:41:19.858Z,4.57
2019-02-25T12:42:55.260Z,7.27
2019-02-25T12:44:30.373Z,4.87
2019-02-25T12:46:05.170Z,4.77
2019-02-25T12:47:40.217Z,7.30
2019-02-25T12:49:15.277Z,4.77
2019-02-25T12:50:50.303Z,6.87
2019-02-25T12:52:25.104Z,5.73
2019-02-25T12:54:00.161Z,4.93
2019-02-25T12:55:34.955Z,5.63
2019-02-25T12:57:09.959Z,5.87
2019-02-25T12:58:44.986Z,6.57
2019-02-25T13:00:19.910Z,5.50
2019-02-25T13:01:54.692Z,5.17
2019-02-25T13:03:29.610Z,5.90
2019-02-25T13:05:04.774Z,8.10
2019-02-25T13:06:40.078Z,5.60
2019-02-25T13:08:14.882Z,7.10
2019-02-25T13:09:49.934Z,5.20
2019-02-25T13:11:24.739Z,5.73
2019-02-25T13:12:59.818Z,6.03
2019-02-25T13:14:34.642Z,4.77
2019-02-25T13:16:09.417Z,6.07
2019-02-25T13:17:44.289Z,6.80
2019-02-25T13:19:19.108Z,6.03
2019-02-25T13:20:53.911Z,5.13
2019-02-25T13:22:28.309Z,5.07
2019-02-25T13:24:04.531Z,5.90
2019-02-25T13:25:39.525Z,6.27
2019-02-25T13:27:14.162Z,6.87
2019-02-25T13:28:48.982Z,5.13
2019-02-25T13:30:23.810Z,5.00
2019-02-25T13:31:58.358Z,5.27
2019-02-25T13:33:33.068Z,8.00
2019-02-25T13:35:07.763Z,8.60
2019-02-25T13:36:42.205Z,8.27
2019-02-25T13:38:16.589Z,6.77
2019-02-25T13:39:51.411Z,6.83
2019-02-25T13:41:26.153Z,6.17
2019-02-25T13:43:00.627Z,5.80
2019-02-25T13:44:35.359Z,5.83
2019-02-25T13:46:10.753Z,5.50
2019-02-25T13:47:46.050Z,5.70
2019-02-25T13:49:21.114Z,10.10
2019-02-25T13:50:55.916Z,6.87
2019-02-25T13:52:31.536Z,7.23
2019-02-25T13:54:06.337Z,7.73
2019-02-25T13:55:41.787Z,6.73
2019-02-25T13:57:16.623Z,6.03
2019-02-25T13:58:52.308Z,7.93
2019-02-25T14:00:27.594Z,6.07
2019-02-25T14:02:02.455Z,6.40
2019-02-25T14:03:37.374Z,6.17
2019-02-25T14:05:18.448Z,6.30
2019-02-25T14:06:53.381Z,5.97
2019-02-25T14:08:28.236Z,5.80
2019-02-25T14:10:03.067Z,6.57
2019-02-25T14:11:38.990Z,6.17
2019-02-25T14:13:13.806Z,6.27
2019-02-25T14:14:49.340Z,5.60
2019-02-25T14:16:24.465Z,4.53
2019-02-25T14:17:59.537Z,5.27
2019-02-25T14:19:34.633Z,4.57
2019-02-25T14:21:09.595Z,5.10
2019-02-25T14:22:44.850Z,6.63
2019-02-25T14:24:20.764Z,4.07
2019-02-25T14:25:58.785Z,4.50
2019-02-25T14:27:32.762Z,4.83
2019-02-25T14:29:07.701Z,4.80
2019-02-25T14:30:43.193Z,5.07
2019-02-25T14:32:18.383Z,4.67
2019-02-25T14:33:54.228Z,3.87
2019-02-25T14:35:29.166Z,5.17
2019-02-25T14:37:04.821Z,5.03
2019-02-25T14:38:40.246Z,5.73
2019-02-25T14:40:18.773Z,7.33
2019-02-25T14:41:54.388Z,4.63
2019-02-25T14:43:29.319Z,6.57
2019-02-25T14:45:07.198Z,5.33
2019-02-25T14:46:40.929Z,6.73
2019-02-25T14:48:20.414Z,5.23
2019-02-25T14:49:52.606Z,6.70
2019-02-25T14:51:27.788Z,5.60
2019-02-25T14:53:03.988Z,5.90
2019-02-25T14:54:39.464Z,6.43
2019-02-25T14:56:14.399Z,5.17
2019-02-25T14:57:49.186Z,6.10
2019-02-25T14:59:24.356Z,4.93
2019-02-25T15:00:59.417Z,5.90
2019-02-25T15:02:34.466Z,4.87
2019-02-25T15:04:09.372Z,5.20
2019-02-25T15:05:44.352Z,6.30
2019-02-25T15:07:19.491Z,6.23
2019-02-25T15:08:54.311Z,6.87
2019-02-25T15:10:31.536Z,6.27
2019-02-25T15:12:07.480Z,6.40
2019-02-25T15:13:43.118Z,7.60
2019-02-25T15:15:18.543Z,6.00
2019-02-25T15:16:53.891Z,6.07
2019-02-25T15:18:30.726Z,8.07
2019-02-25T15:20:06.574Z,4.77
2019-02-25T15:21:43.253Z,7.23
2019-02-25T15:23:18.976Z,5.73
2019-02-25T15:24:55.416Z,6.00
2019-02-25T15:26:32.274Z,4.93
2019-02-25T15:28:11.924Z,5.57
2019-02-25T15:29:48.584Z,6.87
2019-02-25T15:31:23.502Z,7.00
2019-02-25T15:32:59.945Z,6.00
2019-02-25T15:34:37.482Z,6.60
2019-02-25T15:36:17.542Z,10.20
2019-02-25T15:37:52.962Z,5.97
2019-02-25T15:39:28.440Z,5.40
2019-02-25T15:41:04.986Z,7.27
2019-02-25T15:42:40.993Z,8.33
2019-02-25T15:44:16.574Z,8.70
2019-02-25T15:45:51.909Z,8.23
2019-02-25T15:47:27.138Z,8.63
2019-02-25T15:49:03.033Z,9.30
2019-02-25T15:50:38.224Z,7.83
2019-02-25T15:52:14.664Z,12.23
2019-02-25T15:53:51.383Z,7.13
2019-02-25T15:55:27.586Z,7.23
2019-02-25T15:57:02.555Z,7.93
2019-02-25T15:58:37.425Z,9.23
2019-02-25T16:00:19.107Z,9.13
2019-02-25T16:01:53.363Z,7.50
2019-02-25T16:03:28.433Z,7.33
2019-02-25T16:05:04.215Z,6.63
2019-02-25T16:06:39.841Z,8.50
2019-02-25T16:08:19.079Z,9.23
2019-02-25T16:09:54.695Z,7.33
2019-02-25T16:11:29.510Z,7.40
2019-02-25T16:13:09.284Z,7.10
2019-02-25T16:14:42.265Z,7.30
2019-02-25T16:16:19.844Z,7.63
2019-02-25T16:17:54.060Z,7.03
2019-02-25T16:19:37.262Z,6.43
2019-02-25T16:21:05.306Z,9.20
2019-02-25T16:22:40.780Z,8.03
2019-02-25T16:24:16.851Z,7.37
2019-02-25T16:25:53.162Z,8.47
2019-02-25T16:27:28.706Z,9.87
2019-02-25T16:29:04.653Z,6.90
2019-02-25T16:30:40.526Z,8.50
2019-02-25T16:32:17.003Z,7.27
2019-02-25T16:33:53.412Z,7.27
2019-02-25T16:35:28.311Z,6.83
2019-02-25T16:37:04.753Z,8.03
2019-02-25T16:38:39.490Z,6.63
2019-02-25T16:40:14.257Z,6.83
2019-02-25T16:41:48.917Z,8.47
2019-02-25T16:43:23.390Z,10.13
2019-02-25T16:45:00.983Z,12.63
2019-02-25T16:46:36.541Z,11.27
2019-02-25T16:48:10.261Z,10.57
2019-02-25T16:49:44.841Z,10.23
2019-02-25T16:51:19.511Z,10.03
2019-02-25T16:52:54.139Z,10.50
2019-02-25T16:54:29.017Z,12.03
2019-02-25T16:56:05.678Z,12.60
2019-02-25T16:57:41.281Z,9.93
2019-02-25T16:59:18.394Z,9.73
2019-02-25T17:00:56.014Z,9.10
2019-02-25T17:02:33.944Z,9.38
2019-02-25T17:04:07.496Z,9.00
2019-02-25T17:05:44.807Z,10.30
2019-02-25T17:07:20.458Z,9.93
2019-02-25T17:08:55.619Z,10.15
2019-02-25T17:10:33.727Z,7.97
2019-02-25T17:12:08.920Z,9.30
2019-02-25T17:13:43.541Z,10.72
2019-02-25T17:15:18.599Z,10.13
2019-02-25T17:16:56.625Z,7.58
2019-02-25T17:18:31.242Z,7.90
2019-02-25T17:20:12.316Z,11.10
2019-02-25T17:21:46.045Z,6.65
2019-02-25T17:23:22.807Z,9.85
2019-02-25T17:25:00.155Z,8.50
2019-02-25T17:26:35.603Z,9.88
2019-02-25T17:28:14.770Z,12.78
2019-02-25T17:29:49.113Z,12.37
2019-02-25T17:31:23.770Z,12.20
2019-02-25T17:33:01.110Z,11.22
2019-02-25T17:34:36.710Z,10.32
2019-02-25T17:36:12.395Z,12.80
2019-02-25T17:37:47.989Z,11.35
2019-02-25T17:39:22.541Z,11.95
2019-02-25T17:40:59.203Z,10.45
2019-02-25T17:42:34.157Z,13.30
2019-02-25T17:44:08.932Z,12.60
2019-02-25T17:45:43.766Z,12.68
2019-02-25T17:47:24.431Z,9.55
2019-02-25T17:48:54.641Z,11.78
2019-02-25T17:50:30.250Z,10.70
2019-02-25T17:52:05.877Z,12.55
2019-02-25T17:53:40.650Z,11.15
2019-02-25T17:55:17.457Z,10.68
2019-02-25T17:56:52.022Z,10.25
2019-02-25T17:58:26.491Z,14.58
2019-02-25T18:00:00.967Z,13.90
2019-02-25T18:01:35.711Z,10.82
2019-02-25T18:03:10.647Z,10.30
2019-02-25T18:04:47.051Z,11.33
2019-02-25T18:06:22.920Z,12.15
2019-02-25T18:07:58.375Z,11.10
2019-02-25T18:09:32.883Z,11.10
2019-02-25T18:11:08.158Z,14.25
2019-02-25T18:12:43.032Z,13.05
2019-02-25T18:14:19.307Z,14.07
2019-02-25T18:15:55.672Z,11.15
2019-02-25T18:17:30.672Z,12.65
2019-02-25T18:19:05.341Z,10.32
2019-02-25T18:20:40.050Z,11.18
2019-02-25T18:22:16.571Z,10.78
2019-02-25T18:23:52.072Z,12.43
2019-02-25T18:25:27.294Z,12.00
2019-02-25T18:27:01.874Z,9.30
2019-02-25T18:28:37.418Z,12.30
2019-02-25T18:30:13.112Z,10.75
2019-02-25T18:31:48.182Z,12.50
2019-02-25T18:33:25.232Z,11.93
2019-02-25T18:35:00.531Z,10.05
2019-02-25T18:36:35.618Z,12.37
2019-02-25T18:38:10.446Z,12.30
2019-02-25T18:39:45.723Z,11.75
2019-02-25T18:41:23.167Z,11.50
2019-02-25T18:42:58.547Z,12.15
2019-02-25T18:44:34.473Z,12.95
2019-02-25T18:46:08.921Z,10.80
2019-02-25T18:47:43.461Z,11.88
2019-02-25T18:49:18.022Z,13.72
2019-02-25T18:50:55.153Z,11.20
2019-02-25T18:52:29.675Z,11.80
2019-02-25T18:54:05.581Z,11.05
2019-02-25T18:55:41.385Z,12.33
2019-02-25T18:57:16.137Z,11.22
2019-02-25T18:58:50.760Z,10.58
2019-02-25T19:00:29.673Z,11.15
2019-02-25T19:02:05.799Z,15.20
2019-02-25T19:03:41.139Z,11.15
2019-02-25T19:05:16.363Z,9.30
2019-02-25T19:06:51.567Z,11.63
2019-02-25T19:08:28.475Z,10.95
2019-02-25T19:10:03.097Z,11.00
2019-02-25T19:11:40.437Z,13.35
2019-02-25T19:13:16.122Z,11.38
2019-02-25T19:14:55.163Z,12.78
2019-02-25T19:16:29.187Z,10.98
2019-02-25T19:18:04.099Z,12.18
2019-02-25T19:19:40.257Z,13.00
2019-02-25T19:21:15.695Z,13.38
2019-02-25T19:22:51.255Z,11.75
2019-02-25T19:24:26.899Z,11.10
2019-02-25T19:26:01.795Z,12.60
2019-02-25T19:27:36.678Z,11.85
2019-02-25T19:29:12.537Z,10.70
2019-02-25T19:30:50.577Z,12.18
2019-02-25T19:32:25.471Z,13.20
2019-02-25T19:34:00.949Z,16.27
2019-02-25T19:35:39.037Z,11.85
2019-02-25T19:37:14.465Z,11.73
2019-02-25T19:38:50.289Z,10.50
2019-02-25T19:40:25.560Z,11.48
2019-02-25T19:42:00.660Z,11.90
2019-02-25T19:43:35.905Z,13.70
2019-02-25T19:45:11.358Z,12.90
2019-02-25T19:46:48.679Z,12.07
2019-02-25T19:48:27.013Z,12.43
2019-02-25T19:50:02.068Z,13.30
2019-02-25T19:51:37.423Z,14.68
2019-02-25T19:53:14.696Z,11.95
2019-02-25T19:54:50.748Z,12.40
2019-02-25T19:56:26.748Z,12.55
2019-02-25T19:58:01.595Z,12.82
2019-02-25T19:59:36.718Z,13.53
2019-02-25T20:01:12.160Z,13.13
2019-02-25T20:02:48.126Z,14.07
2019-02-25T20:04:23.695Z,14.05
2019-02-25T20:05:59.026Z,13.98
2019-02-25T20:07:35.872Z,14.35
2019-02-25T20:09:11.536Z,14.98
2019-02-25T20:10:46.557Z,15.25
2019-02-25T20:12:21.426Z,14.95
2019-02-25T20:13:56.601Z,14.00
2019-02-25T20:15:31.533Z,17.65
2019-02-25T20:17:06.606Z,17.10
2019-02-25T20:18:42.007Z,15.45
2019-02-25T20:20:17.227Z,15.10
2019-02-25T20:21:52.588Z,17.73
2019-02-25T20:23:29.237Z,16.17
2019-02-25T20:25:05.870Z,15.85
2019-02-25T20:26:41.246Z,16.17
2019-02-25T20:28:18.200Z,13.75
2019-02-25T20:29:52.989Z,13.60
2019-02-25T20:31:27.793Z,17.25
2019-02-25T20:33:03.868Z,17.52
2019-02-25T20:34:39.763Z,17.77
2019-02-25T20:36:17.215Z,16.52
2019-02-25T20:37:53.742Z,18.92
2019-02-25T20:39:28.356Z,14.60
2019-02-25T20:41:03.297Z,18.87
2019-02-25T20:42:37.808Z,17.85
2019-02-25T20:44:12.186Z,15.63
2019-02-25T20:45:48.225Z,14.78
2019-02-25T20:47:23.315Z,17.45
2019-02-25T20:48:59.829Z,17.52
2019-02-25T20:50:34.199Z,18.70
2019-02-25T20:52:09.015Z,22.55
2019-02-25T20:53:43.479Z,18.82
2019-02-25T20:55:18.021Z,18.57
2019-02-25T20:56:53.280Z,15.32
2019-02-25T20:58:29.230Z,16.48